sensor_id;sensor_type;location;lat;lon;timestamp;pressure;altitude;pressure_sealevel;temperature;humidity
48404;BME280;34202;52.536;6.042;2023-08-01T00:03:25;99866.94;;;16.32;100.00
48404;BME280;34202;52.536;6.042;2023-08-01T00:08:25;99859.25;;;16.31;100.00
48404;BME280;34202;52.536;6.042;2023-08-01T00:13:26;99846.29;;;16.29;100.00
48404;BME280;34202;52.536;6.042;2023-08-01T00:18:26;99842.35;;;16.27;100.00
48404;BME280;34202;52.536;6.042;2023-08-01T00:23:26;99840.31;;;16.24;100.00
48404;BME280;34202;52.536;6.042;2023-08-01T00:28:27;99836.31;;;16.23;100.00
48404;BME280;34202;52.536;6.042;2023-08-01T00:33:27;99839.38;;;16.21;100.00
48404;BME280;34202;52.536;6.042;2023-08-01T00:38:28;99831.91;;;16.18;100.00
48404;BME280;34202;52.536;6.042;2023-08-01T00:43:29;99824.59;;;16.16;100.00
48404;BME280;34202;52.536;6.042;2023-08-01T00:48:29;99823.76;;;16.15;100.00
48404;BME280;34202;52.536;6.042;2023-08-01T00:53:31;99824.35;;;16.13;100.00
48404;BME280;34202;52.536;6.042;2023-08-01T00:58:31;99819.52;;;16.11;100.00
48404;BME280;34202;52.536;6.042;2023-08-01T01:03:32;99814.02;;;16.07;100.00
48404;BME280;34202;52.536;6.042;2023-08-01T01:08:32;99806.23;;;16.04;100.00
48404;BME280;34202;52.536;6.042;2023-08-01T01:13:33;99799.75;;;15.98;100.00
48404;BME280;34202;52.536;6.042;2023-08-01T01:18:33;99789.92;;;15.92;100.00
48404;BME280;34202;52.536;6.042;2023-08-01T01:23:34;99782.55;;;15.87;100.00
48404;BME280;34202;52.536;6.042;2023-08-01T01:28:35;99777.66;;;15.81;100.00
48404;BME280;34202;52.536;6.042;2023-08-01T01:33:36;99771.00;;;15.75;100.00
48404;BME280;34202;52.536;6.042;2023-08-01T01:38:37;99761.32;;;15.69;100.00
48404;BME280;34202;52.536;6.042;2023-08-01T01:43:37;99755.55;;;15.63;100.00
48404;BME280;34202;52.536;6.042;2023-08-01T01:48:38;99759.56;;;15.58;100.00
48404;BME280;34202;52.536;6.042;2023-08-01T01:53:38;99760.61;;;15.52;100.00
48404;BME280;34202;52.536;6.042;2023-08-01T01:58:39;99762.18;;;15.47;100.00
48404;BME280;34202;52.536;6.042;2023-08-01T02:03:39;99759.54;;;15.41;100.00
48404;BME280;34202;52.536;6.042;2023-08-01T02:08:40;99757.09;;;15.36;100.00
48404;BME280;34202;52.536;6.042;2023-08-01T02:13:40;99754.81;;;15.30;100.00
48404;BME280;34202;52.536;6.042;2023-08-01T02:18:41;99754.09;;;15.25;100.00
48404;BME280;34202;52.536;6.042;2023-08-01T02:23:41;99756.91;;;15.18;100.00
48404;BME280;34202;52.536;6.042;2023-08-01T02:28:41;99750.63;;;15.11;100.00
48404;BME280;34202;52.536;6.042;2023-08-01T02:33:42;99751.83;;;15.06;100.00
48404;BME280;34202;52.536;6.042;2023-08-01T02:38:42;99748.51;;;15.00;100.00
48404;BME280;34202;52.536;6.042;2023-08-01T02:43:43;99746.20;;;14.95;100.00
48404;BME280;34202;52.536;6.042;2023-08-01T02:48:43;99741.60;;;14.90;100.00
48404;BME280;34202;52.536;6.042;2023-08-01T02:53:43;99741.00;;;14.87;100.00
48404;BME280;34202;52.536;6.042;2023-08-01T02:58:44;99742.66;;;14.83;100.00
48404;BME280;34202;52.536;6.042;2023-08-01T03:03:44;99735.58;;;14.81;100.00
48404;BME280;34202;52.536;6.042;2023-08-01T03:08:44;99733.88;;;14.79;100.00
48404;BME280;34202;52.536;6.042;2023-08-01T03:13:45;99744.92;;;14.78;100.00
48404;BME280;34202;52.536;6.042;2023-08-01T03:18:45;99752.96;;;14.78;100.00
48404;BME280;34202;52.536;6.042;2023-08-01T03:23:46;99764.29;;;14.81;100.00
48404;BME280;34202;52.536;6.042;2023-08-01T03:28:46;99769.14;;;14.83;100.00
48404;BME280;34202;52.536;6.042;2023-08-01T03:33:47;99774.83;;;14.86;100.00
48404;BME280;34202;52.536;6.042;2023-08-01T03:38:47;99776.11;;;14.90;100.00
48404;BME280;34202;52.536;6.042;2023-08-01T03:43:48;99773.58;;;14.93;100.00
48404;BME280;34202;52.536;6.042;2023-08-01T03:48:49;99774.03;;;14.96;100.00
48404;BME280;34202;52.536;6.042;2023-08-01T03:53:49;99781.48;;;14.98;100.00
48404;BME280;34202;52.536;6.042;2023-08-01T03:58:50;99779.86;;;15.00;100.00
48404;BME280;34202;52.536;6.042;2023-08-01T04:03:50;99778.92;;;15.02;100.00
48404;BME280;34202;52.536;6.042;2023-08-01T04:08:51;99780.61;;;15.05;100.00
48404;BME280;34202;52.536;6.042;2023-08-01T04:13:52;99777.59;;;15.07;100.00
48404;BME280;34202;52.536;6.042;2023-08-01T04:18:53;99770.31;;;15.09;100.00
48404;BME280;34202;52.536;6.042;2023-08-01T04:23:53;99768.35;;;15.10;100.00
48404;BME280;34202;52.536;6.042;2023-08-01T04:28:53;99772.89;;;15.11;100.00
48404;BME280;34202;52.536;6.042;2023-08-01T04:33:54;99773.05;;;15.12;100.00
48404;BME280;34202;52.536;6.042;2023-08-01T04:38:54;99775.48;;;15.13;100.00
48404;BME280;34202;52.536;6.042;2023-08-01T04:43:54;99774.40;;;15.14;100.00
48404;BME280;34202;52.536;6.042;2023-08-01T04:48:55;99767.72;;;15.14;100.00
48404;BME280;34202;52.536;6.042;2023-08-01T04:53:55;99767.81;;;15.17;100.00
48404;BME280;34202;52.536;6.042;2023-08-01T04:58:55;99774.94;;;15.19;100.00
48404;BME280;34202;52.536;6.042;2023-08-01T05:03:56;99788.20;;;15.21;100.00
48404;BME280;34202;52.536;6.042;2023-08-01T05:08:57;99785.02;;;15.22;100.00
48404;BME280;34202;52.536;6.042;2023-08-01T05:13:58;99796.91;;;15.23;100.00
48404;BME280;34202;52.536;6.042;2023-08-01T05:18:58;99806.69;;;15.24;100.00
48404;BME280;34202;52.536;6.042;2023-08-01T05:23:58;99799.56;;;15.22;100.00
48404;BME280;34202;52.536;6.042;2023-08-01T05:28:59;99789.63;;;15.14;100.00
48404;BME280;34202;52.536;6.042;2023-08-01T05:33:59;99790.01;;;15.07;100.00
48404;BME280;34202;52.536;6.042;2023-08-01T05:39:00;99784.14;;;15.04;100.00
48404;BME280;34202;52.536;6.042;2023-08-01T05:44:00;99789.98;;;15.01;100.00
48404;BME280;34202;52.536;6.042;2023-08-01T05:49:00;99780.41;;;14.99;100.00
48404;BME280;34202;52.536;6.042;2023-08-01T05:54:01;99787.23;;;15.00;100.00
48404;BME280;34202;52.536;6.042;2023-08-01T05:59:01;99793.14;;;15.02;100.00
48404;BME280;34202;52.536;6.042;2023-08-01T06:04:02;99794.83;;;15.03;100.00
48404;BME280;34202;52.536;6.042;2023-08-01T06:09:02;99790.93;;;15.05;100.00
48404;BME280;34202;52.536;6.042;2023-08-01T06:14:03;99787.03;;;15.07;100.00
48404;BME280;34202;52.536;6.042;2023-08-01T06:19:03;99784.88;;;15.09;100.00
48404;BME280;34202;52.536;6.042;2023-08-01T06:24:04;99783.41;;;15.11;100.00
48404;BME280;34202;52.536;6.042;2023-08-01T06:29:04;99787.00;;;15.14;100.00
48404;BME280;34202;52.536;6.042;2023-08-01T06:34:05;99784.43;;;15.18;100.00
48404;BME280;34202;52.536;6.042;2023-08-01T06:39:05;99786.24;;;15.22;100.00
48404;BME280;34202;52.536;6.042;2023-08-01T06:44:06;99784.73;;;15.26;100.00
48404;BME280;34202;52.536;6.042;2023-08-01T06:49:06;99777.21;;;15.31;100.00
48404;BME280;34202;52.536;6.042;2023-08-01T06:54:07;99777.37;;;15.37;100.00
48404;BME280;34202;52.536;6.042;2023-08-01T06:59:07;99774.35;;;15.45;100.00
48404;BME280;34202;52.536;6.042;2023-08-01T07:04:08;99765.79;;;15.50;100.00
48404;BME280;34202;52.536;6.042;2023-08-01T07:09:08;99778.67;;;15.53;100.00
48404;BME280;34202;52.536;6.042;2023-08-01T07:14:10;99779.30;;;15.55;100.00
48404;BME280;34202;52.536;6.042;2023-08-01T07:19:10;99785.72;;;15.58;100.00
48404;BME280;34202;52.536;6.042;2023-08-01T07:24:11;99793.48;;;15.61;100.00
48404;BME280;34202;52.536;6.042;2023-08-01T07:29:11;99799.14;;;15.65;100.00
48404;BME280;34202;52.536;6.042;2023-08-01T07:34:15;99805.00;;;15.76;100.00
48404;BME280;34202;52.536;6.042;2023-08-01T07:39:16;99808.32;;;15.93;100.00
48404;BME280;34202;52.536;6.042;2023-08-01T07:44:17;99805.17;;;16.15;100.00
48404;BME280;34202;52.536;6.042;2023-08-01T07:49:17;99797.10;;;16.30;100.00
48404;BME280;34202;52.536;6.042;2023-08-01T07:54:18;99800.73;;;16.42;100.00
48404;BME280;34202;52.536;6.042;2023-08-01T07:59:18;99801.83;;;16.62;100.00
48404;BME280;34202;52.536;6.042;2023-08-01T08:04:19;99800.44;;;16.82;100.00
48404;BME280;34202;52.536;6.042;2023-08-01T08:09:19;99802.01;;;16.98;100.00
48404;BME280;34202;52.536;6.042;2023-08-01T08:14:19;99804.90;;;17.14;100.00
48404;BME280;34202;52.536;6.042;2023-08-01T08:19:21;99798.38;;;17.39;100.00
48404;BME280;34202;52.536;6.042;2023-08-01T08:24:24;99800.05;;;17.55;100.00
48404;BME280;34202;52.536;6.042;2023-08-01T08:29:25;99808.27;;;17.61;100.00
48404;BME280;34202;52.536;6.042;2023-08-01T08:34:25;99816.95;;;17.59;100.00
48404;BME280;34202;52.536;6.042;2023-08-01T08:39:25;99821.30;;;17.60;100.00
48404;BME280;34202;52.536;6.042;2023-08-01T08:44:26;99820.52;;;17.67;100.00
48404;BME280;34202;52.536;6.042;2023-08-01T08:49:31;99818.79;;;17.75;100.00
48404;BME280;34202;52.536;6.042;2023-08-01T08:54:32;99819.96;;;17.86;100.00
48404;BME280;34202;52.536;6.042;2023-08-01T08:59:33;99820.52;;;18.04;100.00
48404;BME280;34202;52.536;6.042;2023-08-01T09:04:33;99821.41;;;18.21;100.00
48404;BME280;34202;52.536;6.042;2023-08-01T09:09:34;99827.23;;;18.29;100.00
48404;BME280;34202;52.536;6.042;2023-08-01T09:14:35;99836.23;;;18.24;100.00
48404;BME280;34202;52.536;6.042;2023-08-01T09:19:36;99842.64;;;18.18;100.00
48404;BME280;34202;52.536;6.042;2023-08-01T09:24:36;99844.53;;;18.28;100.00
48404;BME280;34202;52.536;6.042;2023-08-01T09:29:37;99850.48;;;18.33;100.00
48404;BME280;34202;52.536;6.042;2023-08-01T09:34:37;99857.36;;;18.33;100.00
48404;BME280;34202;52.536;6.042;2023-08-01T09:39:37;99874.54;;;18.22;100.00
48404;BME280;34202;52.536;6.042;2023-08-01T09:44:38;99885.84;;;18.08;100.00
48404;BME280;34202;52.536;6.042;2023-08-01T09:49:48;99900.41;;;17.95;100.00
48404;BME280;34202;52.536;6.042;2023-08-01T09:54:50;99907.48;;;17.80;100.00
48404;BME280;34202;52.536;6.042;2023-08-01T09:59:50;99909.34;;;17.63;100.00
48404;BME280;34202;52.536;6.042;2023-08-01T10:04:53;99917.77;;;17.49;100.00
48404;BME280;34202;52.536;6.042;2023-08-01T10:09:55;99917.27;;;17.29;100.00
48404;BME280;34202;52.536;6.042;2023-08-01T10:14:58;99918.36;;;17.08;100.00
48404;BME280;34202;52.536;6.042;2023-08-01T10:19:59;99911.83;;;16.82;100.00
48404;BME280;34202;52.536;6.042;2023-08-01T10:25:00;99919.71;;;16.61;100.00
48404;BME280;34202;52.536;6.042;2023-08-01T10:30:04;99920.41;;;16.51;100.00
48404;BME280;34202;52.536;6.042;2023-08-01T10:35:06;99918.77;;;16.47;100.00
48404;BME280;34202;52.536;6.042;2023-08-01T10:40:08;99929.17;;;16.51;100.00
48404;BME280;34202;52.536;6.042;2023-08-01T10:45:23;99930.58;;;16.62;100.00
48404;BME280;34202;52.536;6.042;2023-08-01T10:50:24;99934.62;;;16.79;100.00
48404;BME280;34202;52.536;6.042;2023-08-01T10:55:24;99939.05;;;16.94;100.00
48404;BME280;34202;52.536;6.042;2023-08-01T11:00:24;99943.98;;;17.04;100.00
48404;BME280;34202;52.536;6.042;2023-08-01T11:05:25;99951.08;;;17.07;100.00
48404;BME280;34202;52.536;6.042;2023-08-01T11:10:28;99944.94;;;17.07;100.00
48404;BME280;34202;52.536;6.042;2023-08-01T11:15:29;99951.77;;;17.13;100.00
48404;BME280;34202;52.536;6.042;2023-08-01T11:20:29;99953.55;;;17.22;100.00
48404;BME280;34202;52.536;6.042;2023-08-01T11:30:33;99950.45;;;17.70;100.00
48404;BME280;34202;52.536;6.042;2023-08-01T11:35:34;99947.16;;;18.07;100.00
48404;BME280;34202;52.536;6.042;2023-08-01T11:40:34;99956.84;;;18.34;100.00
48404;BME280;34202;52.536;6.042;2023-08-01T11:45:35;99962.36;;;18.63;100.00
48404;BME280;34202;52.536;6.042;2023-08-01T11:50:35;99957.58;;;18.90;100.00
48404;BME280;34202;52.536;6.042;2023-08-01T11:55:36;99961.30;;;19.19;100.00
48404;BME280;34202;52.536;6.042;2023-08-01T12:00:38;99966.89;;;19.37;100.00
48404;BME280;34202;52.536;6.042;2023-08-01T12:05:39;99969.48;;;19.51;100.00
48404;BME280;34202;52.536;6.042;2023-08-01T12:10:43;99976.84;;;19.60;100.00
48404;BME280;34202;52.536;6.042;2023-08-01T12:15:46;99977.63;;;19.78;100.00
48404;BME280;34202;52.536;6.042;2023-08-01T12:20:47;99982.55;;;19.95;100.00
48404;BME280;34202;52.536;6.042;2023-08-01T12:25:48;99985.14;;;20.03;100.00
48404;BME280;34202;52.536;6.042;2023-08-01T12:30:48;99986.14;;;20.16;100.00
48404;BME280;34202;52.536;6.042;2023-08-01T12:35:49;99990.66;;;20.33;100.00
48404;BME280;34202;52.536;6.042;2023-08-01T12:40:49;100002.96;;;20.42;100.00
48404;BME280;34202;52.536;6.042;2023-08-01T12:45:50;100014.27;;;20.38;100.00
48404;BME280;34202;52.536;6.042;2023-08-01T12:50:50;100015.86;;;20.27;100.00
48404;BME280;34202;52.536;6.042;2023-08-01T12:55:51;100014.71;;;20.21;100.00
48404;BME280;34202;52.536;6.042;2023-08-01T13:00:53;100016.42;;;20.26;100.00
48404;BME280;34202;52.536;6.042;2023-08-01T13:05:54;100022.48;;;20.44;100.00
48404;BME280;34202;52.536;6.042;2023-08-01T13:10:57;100018.59;;;20.63;100.00
48404;BME280;34202;52.536;6.042;2023-08-01T13:15:59;100020.34;;;20.75;100.00
48404;BME280;34202;52.536;6.042;2023-08-01T13:21:00;100027.00;;;20.72;99.70
48404;BME280;34202;52.536;6.042;2023-08-01T13:26:01;100029.52;;;20.72;99.34
48404;BME280;34202;52.536;6.042;2023-08-01T13:31:02;100030.42;;;20.71;98.99
48404;BME280;34202;52.536;6.042;2023-08-01T13:36:03;100045.34;;;20.66;97.44
48404;BME280;34202;52.536;6.042;2023-08-01T13:41:03;100049.85;;;20.48;96.38
48404;BME280;34202;52.536;6.042;2023-08-01T13:46:22;100042.92;;;20.38;96.84
48404;BME280;34202;52.536;6.042;2023-08-01T13:51:22;100042.06;;;20.41;97.68
48404;BME280;34202;52.536;6.042;2023-08-01T13:56:22;100053.44;;;20.55;98.72
48404;BME280;34202;52.536;6.042;2023-08-01T14:01:23;100058.54;;;20.74;98.46
48404;BME280;34202;52.536;6.042;2023-08-01T14:06:23;100059.13;;;20.85;97.47
48404;BME280;34202;52.536;6.042;2023-08-01T14:11:23;100065.87;;;20.95;96.82
48404;BME280;34202;52.536;6.042;2023-08-01T14:16:24;100074.11;;;20.97;95.49
48404;BME280;34202;52.536;6.042;2023-08-01T14:21:24;100077.30;;;20.89;93.81
48404;BME280;34202;52.536;6.042;2023-08-01T14:26:24;100086.77;;;20.80;92.99
48404;BME280;34202;52.536;6.042;2023-08-01T14:31:25;100089.75;;;20.65;92.65
48404;BME280;34202;52.536;6.042;2023-08-01T14:36:25;100091.27;;;20.43;92.35
48404;BME280;34202;52.536;6.042;2023-08-01T14:41:26;100101.64;;;20.17;92.30
48404;BME280;34202;52.536;6.042;2023-08-01T14:46:26;100113.80;;;19.97;93.74
48404;BME280;34202;52.536;6.042;2023-08-01T14:51:26;100106.50;;;19.95;95.83
48404;BME280;34202;52.536;6.042;2023-08-01T14:56:27;100107.30;;;19.97;95.98
48404;BME280;34202;52.536;6.042;2023-08-01T15:01:27;100109.34;;;19.90;95.40
48404;BME280;34202;52.536;6.042;2023-08-01T15:06:28;100120.91;;;19.76;95.30
48404;BME280;34202;52.536;6.042;2023-08-01T15:11:28;100121.88;;;19.44;94.94
48404;BME280;34202;52.536;6.042;2023-08-01T15:16:29;100118.83;;;19.19;96.56
48404;BME280;34202;52.536;6.042;2023-08-01T15:21:29;100115.17;;;19.05;98.08
48404;BME280;34202;52.536;6.042;2023-08-01T15:26:30;100112.48;;;18.97;99.68
48404;BME280;34202;52.536;6.042;2023-08-01T15:31:30;100104.21;;;19.01;100.00
48404;BME280;34202;52.536;6.042;2023-08-01T15:36:31;100106.03;;;19.08;100.00
48404;BME280;34202;52.536;6.042;2023-08-01T15:41:31;100109.08;;;19.16;100.00
48404;BME280;34202;52.536;6.042;2023-08-01T15:46:33;100113.67;;;19.20;100.00
48404;BME280;34202;52.536;6.042;2023-08-01T15:51:33;100115.44;;;19.20;100.00
48404;BME280;34202;52.536;6.042;2023-08-01T15:56:34;100116.24;;;19.13;100.00
48404;BME280;34202;52.536;6.042;2023-08-01T16:01:35;100118.25;;;19.02;100.00
48404;BME280;34202;52.536;6.042;2023-08-01T16:06:36;100118.35;;;18.91;100.00
48404;BME280;34202;52.536;6.042;2023-08-01T16:11:36;100122.41;;;18.76;100.00
48404;BME280;34202;52.536;6.042;2023-08-01T16:16:37;100125.91;;;18.63;100.00
48404;BME280;34202;52.536;6.042;2023-08-01T16:21:37;100132.55;;;18.50;100.00
48404;BME280;34202;52.536;6.042;2023-08-01T16:26:38;100135.39;;;18.35;100.00
48404;BME280;34202;52.536;6.042;2023-08-01T16:31:38;100140.33;;;18.21;100.00
48404;BME280;34202;52.536;6.042;2023-08-01T16:36:39;100138.48;;;18.13;100.00
48404;BME280;34202;52.536;6.042;2023-08-01T16:41:39;100144.91;;;18.11;100.00
48404;BME280;34202;52.536;6.042;2023-08-01T16:46:40;100144.61;;;18.09;100.00
48404;BME280;34202;52.536;6.042;2023-08-01T16:51:41;100139.27;;;18.11;100.00
48404;BME280;34202;52.536;6.042;2023-08-01T16:56:41;100140.77;;;18.09;100.00
48404;BME280;34202;52.536;6.042;2023-08-01T17:01:42;100146.68;;;18.06;100.00
48404;BME280;34202;52.536;6.042;2023-08-01T17:06:42;100147.26;;;18.04;100.00
48404;BME280;34202;52.536;6.042;2023-08-01T17:11:43;100144.65;;;18.03;100.00
48404;BME280;34202;52.536;6.042;2023-08-01T17:16:43;100145.32;;;18.00;100.00
48404;BME280;34202;52.536;6.042;2023-08-01T17:21:43;100147.77;;;17.94;100.00
48404;BME280;34202;52.536;6.042;2023-08-01T17:26:44;100158.11;;;17.90;100.00
48404;BME280;34202;52.536;6.042;2023-08-01T17:31:44;100163.43;;;17.90;100.00
48404;BME280;34202;52.536;6.042;2023-08-01T17:36:45;100166.98;;;17.83;100.00
48404;BME280;34202;52.536;6.042;2023-08-01T17:41:46;100168.69;;;17.74;100.00
48404;BME280;34202;52.536;6.042;2023-08-01T17:46:46;100167.42;;;17.64;100.00
48404;BME280;34202;52.536;6.042;2023-08-01T17:51:46;100165.91;;;17.56;100.00
48404;BME280;34202;52.536;6.042;2023-08-01T17:56:48;100166.10;;;17.51;100.00
48404;BME280;34202;52.536;6.042;2023-08-01T18:01:49;100162.58;;;17.46;100.00
48404;BME280;34202;52.536;6.042;2023-08-01T18:06:52;100164.52;;;17.40;100.00
48404;BME280;34202;52.536;6.042;2023-08-01T18:11:52;100165.43;;;17.33;100.00
48404;BME280;34202;52.536;6.042;2023-08-01T18:16:53;100173.55;;;17.27;100.00
48404;BME280;34202;52.536;6.042;2023-08-01T18:21:53;100171.56;;;17.23;100.00
48404;BME280;34202;52.536;6.042;2023-08-01T18:26:54;100171.75;;;17.16;100.00
48404;BME280;34202;52.536;6.042;2023-08-01T18:31:55;100172.67;;;17.10;100.00
48404;BME280;34202;52.536;6.042;2023-08-01T18:36:56;100177.27;;;17.03;100.00
48404;BME280;34202;52.536;6.042;2023-08-01T18:41:56;100174.86;;;16.96;100.00
48404;BME280;34202;52.536;6.042;2023-08-01T18:46:57;100181.16;;;16.91;100.00
48404;BME280;34202;52.536;6.042;2023-08-01T18:51:57;100183.02;;;16.87;100.00
48404;BME280;34202;52.536;6.042;2023-08-01T18:56:58;100190.17;;;16.83;100.00
48404;BME280;34202;52.536;6.042;2023-08-01T19:01:58;100195.85;;;16.80;100.00
48404;BME280;34202;52.536;6.042;2023-08-01T19:06:58;100195.40;;;16.77;100.00
48404;BME280;34202;52.536;6.042;2023-08-01T19:12:06;100197.80;;;16.73;100.00
48404;BME280;34202;52.536;6.042;2023-08-01T19:17:07;100207.06;;;16.69;100.00
48404;BME280;34202;52.536;6.042;2023-08-01T19:22:07;100213.48;;;16.65;100.00
48404;BME280;34202;52.536;6.042;2023-08-01T19:27:08;100220.98;;;16.61;100.00
48404;BME280;34202;52.536;6.042;2023-08-01T19:32:09;100224.94;;;16.58;100.00
48404;BME280;34202;52.536;6.042;2023-08-01T19:37:09;100226.29;;;16.54;100.00
48404;BME280;34202;52.536;6.042;2023-08-01T19:42:10;100229.50;;;16.52;100.00
48404;BME280;34202;52.536;6.042;2023-08-01T19:47:11;100229.00;;;16.51;100.00
48404;BME280;34202;52.536;6.042;2023-08-01T19:52:12;100234.45;;;16.50;100.00
48404;BME280;34202;52.536;6.042;2023-08-01T19:57:13;100232.52;;;16.50;100.00
48404;BME280;34202;52.536;6.042;2023-08-01T20:02:14;100228.66;;;16.50;100.00
48404;BME280;34202;52.536;6.042;2023-08-01T20:07:15;100235.19;;;16.50;100.00
48404;BME280;34202;52.536;6.042;2023-08-01T20:12:16;100235.77;;;16.48;100.00
48404;BME280;34202;52.536;6.042;2023-08-01T20:17:16;100240.04;;;16.45;100.00
48404;BME280;34202;52.536;6.042;2023-08-01T20:22:17;100233.58;;;16.44;100.00
48404;BME280;34202;52.536;6.042;2023-08-01T20:27:17;100229.05;;;16.42;100.00
48404;BME280;34202;52.536;6.042;2023-08-01T20:32:19;100231.38;;;16.41;100.00
48404;BME280;34202;52.536;6.042;2023-08-01T20:37:20;100234.09;;;16.38;100.00
48404;BME280;34202;52.536;6.042;2023-08-01T20:42:20;100240.29;;;16.36;100.00
48404;BME280;34202;52.536;6.042;2023-08-01T20:47:21;100240.16;;;16.35;100.00
48404;BME280;34202;52.536;6.042;2023-08-01T20:52:21;100240.88;;;16.34;100.00
48404;BME280;34202;52.536;6.042;2023-08-01T20:57:22;100241.91;;;16.34;100.00
48404;BME280;34202;52.536;6.042;2023-08-01T21:02:22;100245.46;;;16.33;100.00
48404;BME280;34202;52.536;6.042;2023-08-01T21:07:24;100246.89;;;16.32;100.00
48404;BME280;34202;52.536;6.042;2023-08-01T21:12:24;100234.58;;;16.32;100.00
48404;BME280;34202;52.536;6.042;2023-08-01T21:17:25;100228.11;;;16.32;100.00
48404;BME280;34202;52.536;6.042;2023-08-01T21:22:25;100233.42;;;16.31;100.00
48404;BME280;34202;52.536;6.042;2023-08-01T21:27:25;100227.80;;;16.30;100.00
48404;BME280;34202;52.536;6.042;2023-08-01T21:32:26;100233.27;;;16.30;100.00
48404;BME280;34202;52.536;6.042;2023-08-01T21:37:26;100235.90;;;16.29;100.00
48404;BME280;34202;52.536;6.042;2023-08-01T21:42:27;100236.27;;;16.29;100.00
48404;BME280;34202;52.536;6.042;2023-08-01T21:47:27;100237.34;;;16.28;100.00
48404;BME280;34202;52.536;6.042;2023-08-01T21:52:28;100235.46;;;16.26;100.00
48404;BME280;34202;52.536;6.042;2023-08-01T21:57:28;100232.02;;;16.23;100.00
48404;BME280;34202;52.536;6.042;2023-08-01T22:02:28;100231.21;;;16.21;100.00
48404;BME280;34202;52.536;6.042;2023-08-01T22:07:29;100230.92;;;16.18;100.00
48404;BME280;34202;52.536;6.042;2023-08-01T22:12:29;100222.40;;;16.15;100.00
48404;BME280;34202;52.536;6.042;2023-08-01T22:17:30;100215.66;;;16.11;100.00
48404;BME280;34202;52.536;6.042;2023-08-01T22:22:30;100208.73;;;16.08;100.00
48404;BME280;34202;52.536;6.042;2023-08-01T22:27:31;100211.23;;;16.06;100.00
48404;BME280;34202;52.536;6.042;2023-08-01T22:32:31;100215.66;;;16.04;100.00
48404;BME280;34202;52.536;6.042;2023-08-01T22:37:32;100213.08;;;16.02;100.00
48404;BME280;34202;52.536;6.042;2023-08-01T22:42:32;100211.56;;;16.00;100.00
48404;BME280;34202;52.536;6.042;2023-08-01T22:47:32;100210.73;;;15.98;100.00
48404;BME280;34202;52.536;6.042;2023-08-01T22:52:33;100210.96;;;15.95;100.00
48404;BME280;34202;52.536;6.042;2023-08-01T22:57:33;100205.40;;;15.94;100.00
48404;BME280;34202;52.536;6.042;2023-08-01T23:02:34;100210.35;;;15.93;100.00
48404;BME280;34202;52.536;6.042;2023-08-01T23:07:35;100213.88;;;15.92;100.00
48404;BME280;34202;52.536;6.042;2023-08-01T23:12:36;100217.03;;;15.92;100.00
48404;BME280;34202;52.536;6.042;2023-08-01T23:17:36;100213.03;;;15.90;100.00
48404;BME280;34202;52.536;6.042;2023-08-01T23:22:37;100206.55;;;15.90;100.00
48404;BME280;34202;52.536;6.042;2023-08-01T23:27:37;100197.09;;;15.89;100.00
48404;BME280;34202;52.536;6.042;2023-08-01T23:32:38;100187.66;;;15.88;100.00
48404;BME280;34202;52.536;6.042;2023-08-01T23:37:38;100182.98;;;15.85;100.00
48404;BME280;34202;52.536;6.042;2023-08-01T23:42:39;100174.80;;;15.83;100.00
48404;BME280;34202;52.536;6.042;2023-08-01T23:47:39;100168.01;;;15.81;100.00
48404;BME280;34202;52.536;6.042;2023-08-01T23:52:42;100164.89;;;15.79;100.00
48404;BME280;34202;52.536;6.042;2023-08-01T23:57:43;100154.05;;;15.78;100.00
